sensor_id;sensor_type;location;lat;lon;timestamp;temperature;humidity
33988;DHT22;37428;53.580;-1.666;2023-03-21T00:01:24;10.40;92.90
33988;DHT22;37428;53.580;-1.666;2023-03-21T00:04:45;10.40;92.60
33988;DHT22;37428;53.580;-1.666;2023-03-21T00:07:49;10.30;92.30
33988;DHT22;37428;53.580;-1.666;2023-03-21T00:11:11;10.20;92.10
33988;DHT22;37428;53.580;-1.666;2023-03-21T00:16:02;10.20;92.20
33988;DHT22;37428;53.580;-1.666;2023-03-21T00:17:49;10.20;91.80
33988;DHT22;37428;53.580;-1.666;2023-03-21T00:21:10;10.20;92.10
33988;DHT22;37428;53.580;-1.666;2023-03-21T00:24:12;10.20;92.20
33988;DHT22;37428;53.580;-1.666;2023-03-21T00:27:15;10.20;91.70
33988;DHT22;37428;53.580;-1.666;2023-03-21T00:30:19;10.20;91.80
33988;DHT22;37428;53.580;-1.666;2023-03-21T00:33:21;10.20;91.70
33988;DHT22;37428;53.580;-1.666;2023-03-21T00:36:23;10.20;91.70
33988;DHT22;37428;53.580;-1.666;2023-03-21T00:39:26;10.20;91.30
33988;DHT22;37428;53.580;-1.666;2023-03-21T00:42:28;10.20;90.70
33988;DHT22;37428;53.580;-1.666;2023-03-21T00:45:32;10.10;90.50
33988;DHT22;37428;53.580;-1.666;2023-03-21T00:48:34;10.10;90.70
33988;DHT22;37428;53.580;-1.666;2023-03-21T00:51:36;10.00;91.00
33988;DHT22;37428;53.580;-1.666;2023-03-21T00:54:38;10.00;91.40
33988;DHT22;37428;53.580;-1.666;2023-03-21T00:57:40;10.00;91.30
33988;DHT22;37428;53.580;-1.666;2023-03-21T01:00:46;9.90;91.70
33988;DHT22;37428;53.580;-1.666;2023-03-21T01:03:48;9.90;91.90
33988;DHT22;37428;53.580;-1.666;2023-03-21T01:07:03;9.90;92.00
33988;DHT22;37428;53.580;-1.666;2023-03-21T01:10:06;9.90;92.00
33988;DHT22;37428;53.580;-1.666;2023-03-21T01:13:08;9.80;91.90
33988;DHT22;37428;53.580;-1.666;2023-03-21T01:16:11;9.80;91.60
33988;DHT22;37428;53.580;-1.666;2023-03-21T01:19:16;9.80;91.20
33988;DHT22;37428;53.580;-1.666;2023-03-21T01:22:19;9.80;91.70
33988;DHT22;37428;53.580;-1.666;2023-03-21T01:25:21;9.80;91.20
33988;DHT22;37428;53.580;-1.666;2023-03-21T01:28:25;9.80;91.60
33988;DHT22;37428;53.580;-1.666;2023-03-21T01:31:29;9.80;91.20
33988;DHT22;37428;53.580;-1.666;2023-03-21T01:34:31;9.80;91.40
33988;DHT22;37428;53.580;-1.666;2023-03-21T01:37:33;9.70;91.50
33988;DHT22;37428;53.580;-1.666;2023-03-21T01:40:36;9.70;91.80
33988;DHT22;37428;53.580;-1.666;2023-03-21T01:43:38;9.70;91.90
33988;DHT22;37428;53.580;-1.666;2023-03-21T01:46:42;9.70;91.50
33988;DHT22;37428;53.580;-1.666;2023-03-21T01:49:49;9.70;91.50
33988;DHT22;37428;53.580;-1.666;2023-03-21T01:52:52;9.70;91.60
33988;DHT22;37428;53.580;-1.666;2023-03-21T01:55:56;9.60;91.80
33988;DHT22;37428;53.580;-1.666;2023-03-21T01:59:02;9.60;91.90
33988;DHT22;37428;53.580;-1.666;2023-03-21T02:02:10;9.60;92.10
33988;DHT22;37428;53.580;-1.666;2023-03-21T02:05:13;9.50;92.30
33988;DHT22;37428;53.580;-1.666;2023-03-21T02:08:15;9.50;91.80
33988;DHT22;37428;53.580;-1.666;2023-03-21T02:11:17;9.50;91.90
33988;DHT22;37428;53.580;-1.666;2023-03-21T02:14:21;9.60;91.80
33988;DHT22;37428;53.580;-1.666;2023-03-21T02:17:29;9.60;92.10
33988;DHT22;37428;53.580;-1.666;2023-03-21T02:20:53;9.50;92.40
33988;DHT22;37428;53.580;-1.666;2023-03-21T02:27:44;9.60;92.20
33988;DHT22;37428;53.580;-1.666;2023-03-21T02:31:09;9.50;91.80
33988;DHT22;37428;53.580;-1.666;2023-03-21T02:34:33;9.50;91.80
33988;DHT22;37428;53.580;-1.666;2023-03-21T02:37:44;9.50;91.70
33988;DHT22;37428;53.580;-1.666;2023-03-21T02:40:52;9.50;91.90
33988;DHT22;37428;53.580;-1.666;2023-03-21T02:43:59;9.50;92.10
33988;DHT22;37428;53.580;-1.666;2023-03-21T02:47:10;9.50;92.30
33988;DHT22;37428;53.580;-1.666;2023-03-21T02:50:16;9.50;92.10
33988;DHT22;37428;53.580;-1.666;2023-03-21T02:53:24;9.50;91.90
33988;DHT22;37428;53.580;-1.666;2023-03-21T02:56:28;9.50;92.10
33988;DHT22;37428;53.580;-1.666;2023-03-21T02:59:32;9.50;92.00
33988;DHT22;37428;53.580;-1.666;2023-03-21T03:02:37;9.50;92.40
33988;DHT22;37428;53.580;-1.666;2023-03-21T03:05:43;9.50;92.60
33988;DHT22;37428;53.580;-1.666;2023-03-21T03:09:00;9.50;92.50
33988;DHT22;37428;53.580;-1.666;2023-03-21T03:12:14;9.50;92.40
33988;DHT22;37428;53.580;-1.666;2023-03-21T03:15:31;9.50;92.60
33988;DHT22;37428;53.580;-1.666;2023-03-21T03:18:40;9.50;92.50
33988;DHT22;37428;53.580;-1.666;2023-03-21T03:21:46;9.50;92.50
33988;DHT22;37428;53.580;-1.666;2023-03-21T03:24:56;9.50;92.50
33988;DHT22;37428;53.580;-1.666;2023-03-21T03:28:02;9.60;92.60
33988;DHT22;37428;53.580;-1.666;2023-03-21T03:31:06;9.60;92.40
33988;DHT22;37428;53.580;-1.666;2023-03-21T03:34:13;9.60;92.10
33988;DHT22;37428;53.580;-1.666;2023-03-21T03:37:19;9.60;92.30
33988;DHT22;37428;53.580;-1.666;2023-03-21T03:40:30;9.60;92.30
33988;DHT22;37428;53.580;-1.666;2023-03-21T03:43:38;9.60;92.30
33988;DHT22;37428;53.580;-1.666;2023-03-21T03:46:46;9.50;92.10
33988;DHT22;37428;53.580;-1.666;2023-03-21T03:49:53;9.50;92.10
33988;DHT22;37428;53.580;-1.666;2023-03-21T03:53:01;9.50;92.00
33988;DHT22;37428;53.580;-1.666;2023-03-21T03:56:08;9.50;92.20
33988;DHT22;37428;53.580;-1.666;2023-03-21T03:59:11;9.50;92.50
33988;DHT22;37428;53.580;-1.666;2023-03-21T04:02:14;9.50;92.50
33988;DHT22;37428;53.580;-1.666;2023-03-21T04:05:17;9.50;92.30
33988;DHT22;37428;53.580;-1.666;2023-03-21T04:08:20;9.50;92.40
33988;DHT22;37428;53.580;-1.666;2023-03-21T04:11:24;9.50;92.20
33988;DHT22;37428;53.580;-1.666;2023-03-21T04:14:27;9.50;92.40
33988;DHT22;37428;53.580;-1.666;2023-03-21T04:17:29;9.50;92.30
33988;DHT22;37428;53.580;-1.666;2023-03-21T04:20:32;9.50;92.30
33988;DHT22;37428;53.580;-1.666;2023-03-21T04:23:34;9.50;92.40
33988;DHT22;37428;53.580;-1.666;2023-03-21T04:26:39;9.40;92.40
33988;DHT22;37428;53.580;-1.666;2023-03-21T04:29:41;9.40;92.40
33988;DHT22;37428;53.580;-1.666;2023-03-21T04:32:44;9.40;92.50
33988;DHT22;37428;53.580;-1.666;2023-03-21T04:35:53;9.40;92.60
33988;DHT22;37428;53.580;-1.666;2023-03-21T04:38:56;9.40;92.90
33988;DHT22;37428;53.580;-1.666;2023-03-21T04:42:01;9.40;93.10
33988;DHT22;37428;53.580;-1.666;2023-03-21T04:45:04;9.40;93.60
33988;DHT22;37428;53.580;-1.666;2023-03-21T04:48:07;9.30;93.60
33988;DHT22;37428;53.580;-1.666;2023-03-21T04:51:09;9.30;93.80
33988;DHT22;37428;53.580;-1.666;2023-03-21T04:54:12;9.30;94.10
33988;DHT22;37428;53.580;-1.666;2023-03-21T04:57:16;9.30;94.30
33988;DHT22;37428;53.580;-1.666;2023-03-21T05:00:19;9.30;94.50
33988;DHT22;37428;53.580;-1.666;2023-03-21T05:03:22;9.30;94.50
33988;DHT22;37428;53.580;-1.666;2023-03-21T05:06:25;9.30;94.50
33988;DHT22;37428;53.580;-1.666;2023-03-21T05:09:28;9.30;94.50
33988;DHT22;37428;53.580;-1.666;2023-03-21T05:12:31;9.30;94.60
33988;DHT22;37428;53.580;-1.666;2023-03-21T05:15:33;9.30;94.60
33988;DHT22;37428;53.580;-1.666;2023-03-21T05:18:35;9.30;94.60
33988;DHT22;37428;53.580;-1.666;2023-03-21T05:21:38;9.30;94.70
33988;DHT22;37428;53.580;-1.666;2023-03-21T05:24:41;9.30;94.70
33988;DHT22;37428;53.580;-1.666;2023-03-21T05:27:51;9.30;94.80
33988;DHT22;37428;53.580;-1.666;2023-03-21T05:30:54;9.30;94.60
33988;DHT22;37428;53.580;-1.666;2023-03-21T05:33:56;9.30;94.80
33988;DHT22;37428;53.580;-1.666;2023-03-21T05:36:58;9.30;94.90
33988;DHT22;37428;53.580;-1.666;2023-03-21T05:40:00;9.20;94.80
33988;DHT22;37428;53.580;-1.666;2023-03-21T05:43:07;9.20;95.10
33988;DHT22;37428;53.580;-1.666;2023-03-21T05:46:09;9.20;95.10
33988;DHT22;37428;53.580;-1.666;2023-03-21T05:49:12;9.20;95.20
33988;DHT22;37428;53.580;-1.666;2023-03-21T05:52:14;9.20;95.40
33988;DHT22;37428;53.580;-1.666;2023-03-21T05:55:17;9.30;95.50
33988;DHT22;37428;53.580;-1.666;2023-03-21T05:58:20;9.30;95.30
33988;DHT22;37428;53.580;-1.666;2023-03-21T06:01:22;9.30;95.30
33988;DHT22;37428;53.580;-1.666;2023-03-21T06:04:25;9.30;95.20
33988;DHT22;37428;53.580;-1.666;2023-03-21T06:07:27;9.30;95.10
33988;DHT22;37428;53.580;-1.666;2023-03-21T06:10:29;9.40;94.80
33988;DHT22;37428;53.580;-1.666;2023-03-21T06:13:32;9.40;94.90
33988;DHT22;37428;53.580;-1.666;2023-03-21T06:16:34;9.40;94.90
33988;DHT22;37428;53.580;-1.666;2023-03-21T06:19:36;9.40;95.50
33988;DHT22;37428;53.580;-1.666;2023-03-21T06:22:39;9.30;95.80
33988;DHT22;37428;53.580;-1.666;2023-03-21T06:25:41;9.40;95.80
33988;DHT22;37428;53.580;-1.666;2023-03-21T06:28:44;9.40;95.80
33988;DHT22;37428;53.580;-1.666;2023-03-21T06:31:47;9.40;95.60
33988;DHT22;37428;53.580;-1.666;2023-03-21T06:34:49;9.40;95.20
33988;DHT22;37428;53.580;-1.666;2023-03-21T06:37:51;9.40;94.80
33988;DHT22;37428;53.580;-1.666;2023-03-21T06:40:53;9.40;94.50
33988;DHT22;37428;53.580;-1.666;2023-03-21T06:43:56;9.40;94.00
33988;DHT22;37428;53.580;-1.666;2023-03-21T06:46:59;9.50;93.10
33988;DHT22;37428;53.580;-1.666;2023-03-21T06:50:01;9.50;92.90
33988;DHT22;37428;53.580;-1.666;2023-03-21T06:53:03;9.50;93.00
33988;DHT22;37428;53.580;-1.666;2023-03-21T06:56:06;9.50;92.50
33988;DHT22;37428;53.580;-1.666;2023-03-21T06:59:10;9.50;91.80
33988;DHT22;37428;53.580;-1.666;2023-03-21T07:02:12;9.60;92.20
33988;DHT22;37428;53.580;-1.666;2023-03-21T07:05:14;9.60;91.80
33988;DHT22;37428;53.580;-1.666;2023-03-21T07:08:17;9.60;91.90
33988;DHT22;37428;53.580;-1.666;2023-03-21T07:11:19;9.70;91.50
33988;DHT22;37428;53.580;-1.666;2023-03-21T07:14:23;9.80;91.20
33988;DHT22;37428;53.580;-1.666;2023-03-21T07:17:25;9.90;90.80
33988;DHT22;37428;53.580;-1.666;2023-03-21T07:20:27;9.90;89.80
33988;DHT22;37428;53.580;-1.666;2023-03-21T07:23:30;9.90;89.30
33988;DHT22;37428;53.580;-1.666;2023-03-21T07:26:32;9.90;88.80
33988;DHT22;37428;53.580;-1.666;2023-03-21T07:29:36;9.80;88.80
33988;DHT22;37428;53.580;-1.666;2023-03-21T07:32:38;9.80;89.20
33988;DHT22;37428;53.580;-1.666;2023-03-21T07:35:40;9.90;88.90
33988;DHT22;37428;53.580;-1.666;2023-03-21T07:38:42;9.90;88.80
33988;DHT22;37428;53.580;-1.666;2023-03-21T07:41:45;10.00;88.90
33988;DHT22;37428;53.580;-1.666;2023-03-21T07:44:48;10.10;88.50
33988;DHT22;37428;53.580;-1.666;2023-03-21T07:47:52;10.10;88.60
33988;DHT22;37428;53.580;-1.666;2023-03-21T07:50:55;10.30;89.30
33988;DHT22;37428;53.580;-1.666;2023-03-21T07:53:57;10.40;88.00
33988;DHT22;37428;53.580;-1.666;2023-03-21T07:56:59;10.40;88.00
33988;DHT22;37428;53.580;-1.666;2023-03-21T08:00:03;10.50;87.80
33988;DHT22;37428;53.580;-1.666;2023-03-21T08:03:06;10.50;88.20
33988;DHT22;37428;53.580;-1.666;2023-03-21T08:06:09;10.60;87.20
33988;DHT22;37428;53.580;-1.666;2023-03-21T08:09:11;10.70;87.30
33988;DHT22;37428;53.580;-1.666;2023-03-21T08:12:14;10.70;86.60
33988;DHT22;37428;53.580;-1.666;2023-03-21T08:15:17;10.60;86.90
33988;DHT22;37428;53.580;-1.666;2023-03-21T08:18:20;10.60;86.90
33988;DHT22;37428;53.580;-1.666;2023-03-21T08:21:22;10.60;87.10
33988;DHT22;37428;53.580;-1.666;2023-03-21T08:24:25;10.70;87.60
33988;DHT22;37428;53.580;-1.666;2023-03-21T08:27:27;10.70;88.00
33988;DHT22;37428;53.580;-1.666;2023-03-21T08:30:31;10.70;88.10
33988;DHT22;37428;53.580;-1.666;2023-03-21T08:33:33;10.70;88.80
33988;DHT22;37428;53.580;-1.666;2023-03-21T08:36:36;10.70;87.90
33988;DHT22;37428;53.580;-1.666;2023-03-21T08:39:38;10.70;87.60
33988;DHT22;37428;53.580;-1.666;2023-03-21T08:42:41;10.70;87.00
33988;DHT22;37428;53.580;-1.666;2023-03-21T08:45:45;10.70;87.30
33988;DHT22;37428;53.580;-1.666;2023-03-21T08:48:47;10.80;86.80
33988;DHT22;37428;53.580;-1.666;2023-03-21T08:51:49;10.90;87.10
33988;DHT22;37428;53.580;-1.666;2023-03-21T08:54:56;11.10;86.30
33988;DHT22;37428;53.580;-1.666;2023-03-21T08:57:58;11.40;84.80
33988;DHT22;37428;53.580;-1.666;2023-03-21T09:01:01;11.40;84.50
33988;DHT22;37428;53.580;-1.666;2023-03-21T09:04:04;11.50;83.60
33988;DHT22;37428;53.580;-1.666;2023-03-21T09:07:10;11.60;82.90
33988;DHT22;37428;53.580;-1.666;2023-03-21T09:10:16;11.80;83.80
33988;DHT22;37428;53.580;-1.666;2023-03-21T09:13:19;12.00;82.50
33988;DHT22;37428;53.580;-1.666;2023-03-21T09:16:23;11.90;81.70
33988;DHT22;37428;53.580;-1.666;2023-03-21T09:19:25;11.80;81.70
33988;DHT22;37428;53.580;-1.666;2023-03-21T09:22:28;11.70;82.40
33988;DHT22;37428;53.580;-1.666;2023-03-21T09:25:30;11.60;82.80
33988;DHT22;37428;53.580;-1.666;2023-03-21T09:28:32;11.50;82.70
33988;DHT22;37428;53.580;-1.666;2023-03-21T09:31:36;11.50;83.70
33988;DHT22;37428;53.580;-1.666;2023-03-21T09:34:39;12.00;82.90
33988;DHT22;37428;53.580;-1.666;2023-03-21T09:37:41;12.20;81.30
33988;DHT22;37428;53.580;-1.666;2023-03-21T09:40:55;12.20;80.50
33988;DHT22;37428;53.580;-1.666;2023-03-21T09:47:27;11.90;82.60
33988;DHT22;37428;53.580;-1.666;2023-03-21T09:50:34;11.80;82.70
33988;DHT22;37428;53.580;-1.666;2023-03-21T09:53:40;11.90;80.30
33988;DHT22;37428;53.580;-1.666;2023-03-21T09:56:44;11.80;79.40
33988;DHT22;37428;53.580;-1.666;2023-03-21T09:59:47;11.80;80.20
33988;DHT22;37428;53.580;-1.666;2023-03-21T10:02:56;11.80;80.60
33988;DHT22;37428;53.580;-1.666;2023-03-21T10:06:04;11.70;81.20
33988;DHT22;37428;53.580;-1.666;2023-03-21T10:09:13;11.50;81.90
33988;DHT22;37428;53.580;-1.666;2023-03-21T10:12:19;11.40;84.20
33988;DHT22;37428;53.580;-1.666;2023-03-21T10:15:25;11.40;86.00
33988;DHT22;37428;53.580;-1.666;2023-03-21T10:18:29;11.40;84.30
33988;DHT22;37428;53.580;-1.666;2023-03-21T10:21:32;11.40;85.60
33988;DHT22;37428;53.580;-1.666;2023-03-21T10:24:34;11.50;84.90
33988;DHT22;37428;53.580;-1.666;2023-03-21T10:27:37;11.50;85.00
33988;DHT22;37428;53.580;-1.666;2023-03-21T10:30:40;12.00;83.90
33988;DHT22;37428;53.580;-1.666;2023-03-21T10:33:48;12.70;81.60
33988;DHT22;37428;53.580;-1.666;2023-03-21T10:36:51;12.80;79.50
33988;DHT22;37428;53.580;-1.666;2023-03-21T10:39:54;12.90;78.40
33988;DHT22;37428;53.580;-1.666;2023-03-21T10:43:14;13.20;76.90
33988;DHT22;37428;53.580;-1.666;2023-03-21T10:46:18;13.40;77.30
33988;DHT22;37428;53.580;-1.666;2023-03-21T10:49:22;13.70;73.70
33988;DHT22;37428;53.580;-1.666;2023-03-21T10:52:27;14.00;73.10
33988;DHT22;37428;53.580;-1.666;2023-03-21T10:55:31;14.30;72.00
33988;DHT22;37428;53.580;-1.666;2023-03-21T10:58:35;14.50;69.10
33988;DHT22;37428;53.580;-1.666;2023-03-21T11:01:42;14.70;67.90
33988;DHT22;37428;53.580;-1.666;2023-03-21T11:04:47;14.90;67.20
33988;DHT22;37428;53.580;-1.666;2023-03-21T11:07:57;15.10;67.20
33988;DHT22;37428;53.580;-1.666;2023-03-21T11:11:02;15.10;67.30
33988;DHT22;37428;53.580;-1.666;2023-03-21T11:14:06;14.90;68.10
33988;DHT22;37428;53.580;-1.666;2023-03-21T11:17:20;14.50;67.80
33988;DHT22;37428;53.580;-1.666;2023-03-21T11:20:25;14.30;69.40
33988;DHT22;37428;53.580;-1.666;2023-03-21T11:23:33;14.00;70.20
33988;DHT22;37428;53.580;-1.666;2023-03-21T11:26:36;13.80;70.00
33988;DHT22;37428;53.580;-1.666;2023-03-21T11:29:46;13.90;71.50
33988;DHT22;37428;53.580;-1.666;2023-03-21T11:32:52;14.00;69.50
33988;DHT22;37428;53.580;-1.666;2023-03-21T11:36:01;13.90;68.80
33988;DHT22;37428;53.580;-1.666;2023-03-21T11:39:27;13.80;69.70
33988;DHT22;37428;53.580;-1.666;2023-03-21T11:42:32;13.50;70.20
33988;DHT22;37428;53.580;-1.666;2023-03-21T11:45:55;13.30;70.90
33988;DHT22;37428;53.580;-1.666;2023-03-21T11:48:58;13.20;71.70
33988;DHT22;37428;53.580;-1.666;2023-03-21T11:52:22;13.20;72.10
33988;DHT22;37428;53.580;-1.666;2023-03-21T11:55:39;13.20;72.10
33988;DHT22;37428;53.580;-1.666;2023-03-21T11:58:53;13.00;73.30
33988;DHT22;37428;53.580;-1.666;2023-03-21T12:05:28;12.60;74.70
33988;DHT22;37428;53.580;-1.666;2023-03-21T12:08:38;12.50;75.90
33988;DHT22;37428;53.580;-1.666;2023-03-21T12:11:51;12.40;76.40
33988;DHT22;37428;53.580;-1.666;2023-03-21T12:14:59;12.50;75.60
33988;DHT22;37428;53.580;-1.666;2023-03-21T12:18:08;12.70;76.30
33988;DHT22;37428;53.580;-1.666;2023-03-21T12:21:19;13.20;76.50
33988;DHT22;37428;53.580;-1.666;2023-03-21T12:24:30;13.80;73.60
33988;DHT22;37428;53.580;-1.666;2023-03-21T12:27:40;14.30;71.60
33988;DHT22;37428;53.580;-1.666;2023-03-21T12:30:52;14.70;70.30
33988;DHT22;37428;53.580;-1.666;2023-03-21T12:34:05;15.10;70.80
33988;DHT22;37428;53.580;-1.666;2023-03-21T12:37:16;15.40;67.50
33988;DHT22;37428;53.580;-1.666;2023-03-21T12:40:31;15.50;65.80
33988;DHT22;37428;53.580;-1.666;2023-03-21T12:43:44;15.20;65.80
33988;DHT22;37428;53.580;-1.666;2023-03-21T12:46:50;14.90;65.20
33988;DHT22;37428;53.580;-1.666;2023-03-21T12:49:59;15.30;65.20
33988;DHT22;37428;53.580;-1.666;2023-03-21T12:53:29;15.30;63.10
33988;DHT22;37428;53.580;-1.666;2023-03-21T12:56:41;14.90;64.10
33988;DHT22;37428;53.580;-1.666;2023-03-21T12:59:50;15.10;63.20
33988;DHT22;37428;53.580;-1.666;2023-03-21T13:02:58;15.30;62.90
33988;DHT22;37428;53.580;-1.666;2023-03-21T13:06:04;15.50;61.00
33988;DHT22;37428;53.580;-1.666;2023-03-21T13:09:12;15.90;60.90
33988;DHT22;37428;53.580;-1.666;2023-03-21T13:12:31;15.50;59.90
33988;DHT22;37428;53.580;-1.666;2023-03-21T13:16:03;15.10;61.90
33988;DHT22;37428;53.580;-1.666;2023-03-21T13:19:15;14.80;64.80
33988;DHT22;37428;53.580;-1.666;2023-03-21T13:22:24;14.50;66.40
33988;DHT22;37428;53.580;-1.666;2023-03-21T13:25:30;14.60;66.90
33988;DHT22;37428;53.580;-1.666;2023-03-21T13:28:38;15.10;66.70
33988;DHT22;37428;53.580;-1.666;2023-03-21T13:31:43;15.50;65.20
33988;DHT22;37428;53.580;-1.666;2023-03-21T13:34:53;15.70;63.20
33988;DHT22;37428;53.580;-1.666;2023-03-21T13:37:58;15.60;63.60
33988;DHT22;37428;53.580;-1.666;2023-03-21T13:41:04;15.50;62.70
33988;DHT22;37428;53.580;-1.666;2023-03-21T13:44:21;15.10;63.50
33988;DHT22;37428;53.580;-1.666;2023-03-21T13:47:40;14.80;66.00
33988;DHT22;37428;53.580;-1.666;2023-03-21T13:50:51;14.60;69.20
33988;DHT22;37428;53.580;-1.666;2023-03-21T13:53:59;14.40;71.60
33988;DHT22;37428;53.580;-1.666;2023-03-21T13:57:04;14.40;69.90
33988;DHT22;37428;53.580;-1.666;2023-03-21T14:00:18;14.20;70.60
33988;DHT22;37428;53.580;-1.666;2023-03-21T14:03:21;14.10;71.50
33988;DHT22;37428;53.580;-1.666;2023-03-21T14:06:29;14.10;72.20
33988;DHT22;37428;53.580;-1.666;2023-03-21T14:09:36;13.90;71.90
33988;DHT22;37428;53.580;-1.666;2023-03-21T14:12:40;13.70;73.80
33988;DHT22;37428;53.580;-1.666;2023-03-21T14:15:47;13.40;75.70
33988;DHT22;37428;53.580;-1.666;2023-03-21T14:18:53;13.30;76.80
33988;DHT22;37428;53.580;-1.666;2023-03-21T14:21:55;13.10;78.00
33988;DHT22;37428;53.580;-1.666;2023-03-21T14:24:58;13.00;79.70
33988;DHT22;37428;53.580;-1.666;2023-03-21T14:28:04;13.10;79.90
33988;DHT22;37428;53.580;-1.666;2023-03-21T14:31:13;13.30;80.30
33988;DHT22;37428;53.580;-1.666;2023-03-21T14:34:16;13.20;80.40
33988;DHT22;37428;53.580;-1.666;2023-03-21T14:37:25;13.20;79.70
33988;DHT22;37428;53.580;-1.666;2023-03-21T14:40:28;13.10;79.90
33988;DHT22;37428;53.580;-1.666;2023-03-21T14:43:30;12.90;80.60
33988;DHT22;37428;53.580;-1.666;2023-03-21T14:46:35;12.80;81.30
33988;DHT22;37428;53.580;-1.666;2023-03-21T14:49:37;12.60;81.90
33988;DHT22;37428;53.580;-1.666;2023-03-21T14:52:40;12.50;82.30
33988;DHT22;37428;53.580;-1.666;2023-03-21T14:55:45;12.40;83.00
33988;DHT22;37428;53.580;-1.666;2023-03-21T14:58:51;12.40;83.60
33988;DHT22;37428;53.580;-1.666;2023-03-21T15:01:56;12.50;83.50
33988;DHT22;37428;53.580;-1.666;2023-03-21T15:05:08;12.50;82.50
33988;DHT22;37428;53.580;-1.666;2023-03-21T15:08:14;12.50;83.20
33988;DHT22;37428;53.580;-1.666;2023-03-21T15:11:16;12.60;82.70
33988;DHT22;37428;53.580;-1.666;2023-03-21T15:14:22;12.60;82.10
33988;DHT22;37428;53.580;-1.666;2023-03-21T15:17:27;12.90;82.40
33988;DHT22;37428;53.580;-1.666;2023-03-21T15:20:32;13.30;81.40
33988;DHT22;37428;53.580;-1.666;2023-03-21T15:23:38;13.60;78.30
33988;DHT22;37428;53.580;-1.666;2023-03-21T15:26:44;13.80;76.10
33988;DHT22;37428;53.580;-1.666;2023-03-21T15:29:49;14.00;75.70
33988;DHT22;37428;53.580;-1.666;2023-03-21T15:32:55;14.00;74.00
33988;DHT22;37428;53.580;-1.666;2023-03-21T15:35:59;14.10;72.00
33988;DHT22;37428;53.580;-1.666;2023-03-21T15:39:01;14.20;68.10
33988;DHT22;37428;53.580;-1.666;2023-03-21T15:42:21;14.00;65.00
33988;DHT22;37428;53.580;-1.666;2023-03-21T15:45:27;13.80;65.70
33988;DHT22;37428;53.580;-1.666;2023-03-21T15:48:33;13.70;66.50
33988;DHT22;37428;53.580;-1.666;2023-03-21T15:51:35;13.80;69.40
33988;DHT22;37428;53.580;-1.666;2023-03-21T15:54:42;14.00;67.30
33988;DHT22;37428;53.580;-1.666;2023-03-21T15:57:45;13.80;66.00
33988;DHT22;37428;53.580;-1.666;2023-03-21T16:00:50;13.50;67.80
33988;DHT22;37428;53.580;-1.666;2023-03-21T16:03:56;13.20;70.00
33988;DHT22;37428;53.580;-1.666;2023-03-21T16:07:01;13.10;69.80
33988;DHT22;37428;53.580;-1.666;2023-03-21T16:10:04;13.00;71.00
33988;DHT22;37428;53.580;-1.666;2023-03-21T16:13:09;12.90;72.50
33988;DHT22;37428;53.580;-1.666;2023-03-21T16:16:15;12.80;71.40
33988;DHT22;37428;53.580;-1.666;2023-03-21T16:19:19;12.70;72.50
33988;DHT22;37428;53.580;-1.666;2023-03-21T16:22:22;13.00;72.20
33988;DHT22;37428;53.580;-1.666;2023-03-21T16:25:24;13.00;70.60
33988;DHT22;37428;53.580;-1.666;2023-03-21T16:28:27;12.80;70.30
33988;DHT22;37428;53.580;-1.666;2023-03-21T16:31:32;12.80;71.10
33988;DHT22;37428;53.580;-1.666;2023-03-21T16:34:35;12.90;70.10
33988;DHT22;37428;53.580;-1.666;2023-03-21T16:37:37;12.70;69.40
33988;DHT22;37428;53.580;-1.666;2023-03-21T16:40:40;12.60;69.60
33988;DHT22;37428;53.580;-1.666;2023-03-21T16:43:43;12.50;70.50
33988;DHT22;37428;53.580;-1.666;2023-03-21T16:46:45;12.30;70.50
33988;DHT22;37428;53.580;-1.666;2023-03-21T16:49:50;12.20;70.40
33988;DHT22;37428;53.580;-1.666;2023-03-21T16:52:52;12.10;70.70
33988;DHT22;37428;53.580;-1.666;2023-03-21T16:55:55;12.00;70.80
33988;DHT22;37428;53.580;-1.666;2023-03-21T16:59:02;11.90;70.70
33988;DHT22;37428;53.580;-1.666;2023-03-21T17:02:11;11.90;71.70
33988;DHT22;37428;53.580;-1.666;2023-03-21T17:05:15;11.80;70.00
33988;DHT22;37428;53.580;-1.666;2023-03-21T17:08:18;11.70;69.60
33988;DHT22;37428;53.580;-1.666;2023-03-21T17:11:23;11.70;70.20
33988;DHT22;37428;53.580;-1.666;2023-03-21T17:14:26;11.60;69.50
33988;DHT22;37428;53.580;-1.666;2023-03-21T17:17:28;11.50;69.00
33988;DHT22;37428;53.580;-1.666;2023-03-21T17:20:33;11.50;68.90
33988;DHT22;37428;53.580;-1.666;2023-03-21T17:23:37;11.40;68.60
33988;DHT22;37428;53.580;-1.666;2023-03-21T17:26:39;11.30;68.70
33988;DHT22;37428;53.580;-1.666;2023-03-21T17:29:41;11.20;68.80
33988;DHT22;37428;53.580;-1.666;2023-03-21T17:32:43;11.20;68.80
33988;DHT22;37428;53.580;-1.666;2023-03-21T17:35:46;11.10;68.90
33988;DHT22;37428;53.580;-1.666;2023-03-21T17:38:49;11.10;69.50
33988;DHT22;37428;53.580;-1.666;2023-03-21T17:41:52;11.10;69.00
33988;DHT22;37428;53.580;-1.666;2023-03-21T17:44:54;11.10;69.50
33988;DHT22;37428;53.580;-1.666;2023-03-21T17:47:56;11.10;69.30
33988;DHT22;37428;53.580;-1.666;2023-03-21T17:51:00;11.00;70.60
33988;DHT22;37428;53.580;-1.666;2023-03-21T17:54:02;11.00;69.90
33988;DHT22;37428;53.580;-1.666;2023-03-21T17:57:05;11.00;69.90
33988;DHT22;37428;53.580;-1.666;2023-03-21T18:00:12;11.00;70.40
33988;DHT22;37428;53.580;-1.666;2023-03-21T18:03:14;11.00;70.80
33988;DHT22;37428;53.580;-1.666;2023-03-21T18:06:20;11.00;70.90
33988;DHT22;37428;53.580;-1.666;2023-03-21T18:09:22;11.00;70.70
33988;DHT22;37428;53.580;-1.666;2023-03-21T18:12:25;10.90;70.60
33988;DHT22;37428;53.580;-1.666;2023-03-21T18:15:27;10.90;71.00
33988;DHT22;37428;53.580;-1.666;2023-03-21T18:18:29;10.90;71.40
33988;DHT22;37428;53.580;-1.666;2023-03-21T18:21:33;10.80;72.30
33988;DHT22;37428;53.580;-1.666;2023-03-21T18:24:35;10.70;73.30
33988;DHT22;37428;53.580;-1.666;2023-03-21T18:27:37;10.60;74.30
33988;DHT22;37428;53.580;-1.666;2023-03-21T18:30:41;10.60;76.10
33988;DHT22;37428;53.580;-1.666;2023-03-21T18:33:44;10.50;76.70
33988;DHT22;37428;53.580;-1.666;2023-03-21T18:36:47;10.50;77.50
33988;DHT22;37428;53.580;-1.666;2023-03-21T18:39:49;10.40;78.70
33988;DHT22;37428;53.580;-1.666;2023-03-21T18:42:51;10.40;79.30
33988;DHT22;37428;53.580;-1.666;2023-03-21T18:45:53;10.40;79.60
33988;DHT22;37428;53.580;-1.666;2023-03-21T18:48:56;10.40;79.80
33988;DHT22;37428;53.580;-1.666;2023-03-21T18:51:59;10.40;80.20
33988;DHT22;37428;53.580;-1.666;2023-03-21T18:55:02;10.30;79.60
33988;DHT22;37428;53.580;-1.666;2023-03-21T18:58:04;10.30;79.20
33988;DHT22;37428;53.580;-1.666;2023-03-21T19:01:06;10.20;79.70
33988;DHT22;37428;53.580;-1.666;2023-03-21T19:04:08;10.10;79.70
33988;DHT22;37428;53.580;-1.666;2023-03-21T19:07:12;10.10;80.20
33988;DHT22;37428;53.580;-1.666;2023-03-21T19:10:15;10.00;80.70
33988;DHT22;37428;53.580;-1.666;2023-03-21T19:13:18;10.00;80.90
33988;DHT22;37428;53.580;-1.666;2023-03-21T19:16:20;10.00;81.30
33988;DHT22;37428;53.580;-1.666;2023-03-21T19:19:22;10.00;81.50
33988;DHT22;37428;53.580;-1.666;2023-03-21T19:22:26;9.90;82.00
33988;DHT22;37428;53.580;-1.666;2023-03-21T19:25:29;9.90;82.00
33988;DHT22;37428;53.580;-1.666;2023-03-21T19:28:31;9.80;82.30